Time;durP1;ratioP1;P1;durP2;ratioP2;P2;SDS_P1;SDS_P2;PMS_P1;PMS_P2;Temp;Humidity;BMP_temperature;BMP_pressure;BME280_temperature;BME280_humidity;BME280_pressure;Samples;Min_cycle;Max_cycle;Signal;HPM_P1;HPM_P2
2024/04/02 00:00:44;;;;;;;54.10;19.40;;;;;;;16.01;57.90;98287.59;107257;1257;60431;-39
2024/04/02 00:03:12;;;;;;;48.80;17.50;;;;;;;15.98;58.06;98290.38;107232;1263;72622;-39
2024/04/02 00:05:40;;;;;;;56.70;17.00;;;;;;;15.95;58.23;98283.94;107229;1263;68047;-39
2024/04/02 00:08:08;;;;;;;48.70;19.10;;;;;;;15.93;58.32;98278.05;107249;1257;72291;-39
2024/04/02 00:10:36;;;;;;;52.80;20.00;;;;;;;15.91;58.34;98274.12;107199;1257;60315;-39
2024/04/02 00:13:04;;;;;;;59.10;22.80;;;;;;;15.89;58.50;98271.58;107140;1258;61124;-39
2024/04/02 00:15:31;;;;;;;51.80;20.80;;;;;;;15.86;58.72;98265.78;107269;1257;73893;-39
2024/04/02 00:17:59;;;;;;;44.50;17.20;;;;;;;15.84;58.75;98265.96;107115;1257;67619;-39
2024/04/02 00:20:27;;;;;;;52.00;20.20;;;;;;;15.82;58.92;98265.55;107161;1262;71396;-39
2024/04/02 00:22:55;;;;;;;47.10;21.10;;;;;;;15.79;59.13;98261.38;107055;1257;60181;-39
2024/04/02 00:25:22;;;;;;;51.50;19.60;;;;;;;15.78;59.07;98262.11;107163;1259;60483;-39
2024/04/02 00:27:53;;;;;;;56.20;22.20;;;;;;;15.76;59.35;98259.50;107046;1257;72578;-39
2024/04/02 00:30:28;;;;;;;54.50;22.50;;;;;;;15.74;59.36;98256.89;107046;1257;66342;-39
2024/04/02 00:32:56;;;;;;;54.70;24.80;;;;;;;15.71;59.65;98256.70;107082;1263;71200;-39
2024/04/02 00:35:23;;;;;;;52.50;23.70;;;;;;;15.69;59.73;98257.38;107090;1260;60423;-39
2024/04/02 00:37:51;;;;;;;57.20;23.90;;;;;;;15.67;59.73;98252.50;107067;1257;60438;-39
2024/04/02 00:40:19;;;;;;;50.10;22.20;;;;;;;15.64;59.82;98248.08;107094;1257;74037;-39
2024/04/02 00:42:47;;;;;;;44.70;14.30;;;;;;;15.62;60.01;98247.98;107053;1263;66771;-39
2024/04/02 00:45:14;;;;;;;50.10;13.50;;;;;;;15.66;59.96;98244.54;107061;1257;72694;-39
2024/04/02 00:47:42;;;;;;;58.60;14.00;;;;;;;15.72;59.96;98238.89;107154;1258;60358;-37
2024/04/02 00:50:10;;;;;;;51.00;13.50;;;;;;;15.74;59.94;98237.04;107144;1257;61228;-39
2024/04/02 00:52:39;;;;;;;41.40;13.50;;;;;;;15.74;60.02;98233.91;107056;1258;73858;-39
2024/04/02 00:55:07;;;;;;;49.50;16.30;;;;;;;15.74;60.04;98235.25;107225;1257;66779;-39
2024/04/02 00:57:34;;;;;;;52.40;18.20;;;;;;;15.74;60.07;98229.23;107123;1257;72737;-39
2024/04/02 01:00:02;;;;;;;39.60;17.20;;;;;;;15.74;60.16;98229.00;107186;1257;60594;-39
2024/04/02 01:02:29;;;;;;;52.60;17.40;;;;;;;15.73;60.18;98227.80;107042;1257;59770;-39
2024/04/02 01:04:56;;;;;;;47.40;17.00;;;;;;;15.72;60.17;98227.34;107132;1257;73849;-39
2024/04/02 01:07:24;;;;;;;54.10;18.50;;;;;;;15.70;60.28;98222.08;107036;1257;66610;-39
2024/04/02 01:09:51;;;;;;;51.90;17.10;;;;;;;15.68;60.39;98221.17;107137;1262;71795;-39
2024/04/02 01:12:19;;;;;;;58.00;21.50;;;;;;;15.64;60.56;98222.64;107021;1260;60358;-39
2024/04/02 01:14:46;;;;;;;51.70;20.20;;;;;;;15.61;60.60;98226.60;107090;1258;60415;-39
2024/04/02 01:17:16;;;;;;;55.20;20.40;;;;;;;15.58;60.79;98220.96;107026;1257;72602;-39
2024/04/02 01:19:43;;;;;;;54.80;22.90;;;;;;;15.56;60.95;98216.63;107025;1257;66443;-38
2024/04/02 01:22:10;;;;;;;47.20;21.40;;;;;;;15.54;61.05;98210.14;106974;1258;72679;-38
2024/04/02 01:24:38;;;;;;;48.00;19.40;;;;;;;15.51;61.15;98203.45;107049;1259;60427;-39
2024/04/02 01:27:05;;;;;;;51.70;24.80;;;;;;;15.49;61.23;98194.90;107011;1263;60508;-38
2024/04/02 01:29:32;;;;;;;48.70;13.10;;;;;;;15.48;61.36;98181.73;107040;1257;74309;-39
2024/04/02 01:32:00;;;;;;;47.50;11.70;;;;;;;15.52;61.35;98183.30;107032;1263;66398;-39
2024/04/02 01:34:27;;;;;;;46.50;13.30;;;;;;;15.57;61.30;98177.52;107187;1257;72664;-39
2024/04/02 01:36:55;;;;;;;58.90;13.30;;;;;;;15.57;61.35;98181.11;107213;1257;61097;-39
2024/04/02 01:39:22;;;;;;;44.00;13.50;;;;;;;15.57;61.32;98182.35;107251;1257;59394;-39
2024/04/02 01:41:49;;;;;;;47.40;14.30;;;;;;;15.59;61.31;98182.23;107271;1258;73429;-39
2024/04/02 01:44:17;;;;;;;46.00;15.90;;;;;;;15.60;61.18;98185.80;107251;1257;67590;-38
2024/04/02 01:46:44;;;;;;;56.30;17.30;;;;;;;15.60;61.19;98182.44;107248;1257;71366;-38
2024/04/02 01:49:11;;;;;;;59.40;20.00;;;;;;;15.59;61.16;98178.16;107285;1257;60388;-39
2024/04/02 01:51:39;;;;;;;49.50;19.50;;;;;;;15.56;61.29;98171.84;107259;1257;60434;-38
2024/04/02 01:54:07;;;;;;;44.90;20.10;;;;;;;15.50;61.35;98163.98;107253;1257;73830;-38
2024/04/02 01:56:35;;;;;;;51.10;19.70;;;;;;;15.43;61.48;98162.00;107272;1257;66530;-39
2024/04/02 01:59:02;;;;;;;49.00;22.70;;;;;;;15.37;61.50;98162.13;107234;1257;71483;-39
2024/04/02 02:01:30;;;;;;;50.50;12.80;;;;;;;15.31;61.65;98161.38;107245;1257;60447;-39
2024/04/02 02:03:57;;;;;;;53.20;11.40;;;;;;;15.26;61.79;98150.70;107253;1256;60298;-39
2024/04/02 02:06:25;;;;;;;48.00;13.20;;;;;;;15.27;61.87;98145.55;107197;1258;72592;-39
2024/04/02 02:08:52;;;;;;;60.60;15.00;;;;;;;15.23;62.00;98140.92;107129;1257;68057;-38
2024/04/02 02:11:19;;;;;;;52.00;16.70;;;;;;;15.15;62.09;98140.23;107101;1256;72755;-38
2024/04/02 02:13:47;;;;;;;48.30;17.40;;;;;;;15.09;62.29;98147.04;107117;1257;60370;-38
2024/04/02 02:16:14;;;;;;;54.70;19.00;;;;;;;15.04;62.52;98145.52;107099;1257;60476;-38
2024/04/02 02:18:41;;;;;;;60.20;20.20;;;;;;;14.99;62.76;98147.95;107220;1257;73890;-38
2024/04/02 02:21:09;;;;;;;48.50;22.20;;;;;;;14.92;62.98;98147.06;107196;1257;67889;-38
2024/04/02 02:23:39;;;;;;;46.20;10.00;;;;;;;14.85;63.20;98142.58;107138;1257;72126;-38
2024/04/02 02:26:06;;;;;;;48.10;13.00;;;;;;;14.84;63.47;98141.50;107083;1260;60530;-38
2024/04/02 02:28:34;;;;;;;45.20;14.70;;;;;;;14.82;63.69;98143.33;107186;1257;60278;-38
2024/04/02 02:31:01;;;;;;;47.40;16.50;;;;;;;14.80;63.92;98148.91;107143;1257;73082;-38
2024/04/02 02:33:29;;;;;;;47.40;18.30;;;;;;;14.77;64.08;98146.62;107243;1257;67648;-38
2024/04/02 02:35:56;;;;;;;47.10;19.90;;;;;;;14.74;64.21;98141.21;107231;1256;72721;-38
2024/04/02 02:38:23;;;;;;;38.00;19.00;;;;;;;14.72;64.40;98149.27;107218;1257;61167;-39
2024/04/02 02:40:51;;;;;;;41.60;19.30;;;;;;;14.69;64.50;98149.63;107230;1257;61125;-39
2024/04/02 02:43:18;;;;;;;48.40;21.20;;;;;;;14.67;64.59;98148.64;107251;1256;73615;-39
2024/04/02 02:45:50;;;;;;;42.90;10.90;;;;;;;14.66;64.73;98151.88;107256;1257;66433;-38
2024/04/02 02:48:17;;;;;;;36.70;11.40;;;;;;;14.71;64.78;98152.89;107255;1257;72678;-38
2024/04/02 02:50:45;;;;;;;42.70;12.70;;;;;;;14.75;64.90;98154.77;107116;1257;61221;-38
2024/04/02 02:53:14;;;;;;;43.30;13.90;;;;;;;14.75;64.89;98152.19;107135;1256;61078;-38
2024/04/02 02:55:53;;;;;;;45.40;14.90;;;;;;;14.73;65.14;98152.61;107238;1257;74652;-38
2024/04/02 02:58:20;;;;;;;47.20;16.70;;;;;;;14.71;65.20;98146.02;107253;1257;68138;-38
2024/04/02 03:00:48;;;;;;;45.20;18.30;;;;;;;14.70;65.26;98146.59;107241;1257;71452;-38
2024/04/02 03:03:15;;;;;;;39.90;18.10;;;;;;;14.68;65.35;98147.55;107238;1257;60478;-37
2024/04/02 03:05:52;;;;;;;43.10;17.80;;;;;;;14.66;65.37;98143.84;107215;1256;60083;-39
2024/04/02 03:08:21;;;;;;;41.50;17.80;;;;;;;14.63;65.57;98137.04;107265;1255;74642;-39
2024/04/02 03:11:03;;;;;;;44.30;9.40;;;;;;;14.60;65.60;98134.91;107255;1257;66608;-39
2024/04/02 03:13:34;;;;;;;35.90;11.40;;;;;;;14.63;65.51;98134.86;107209;1257;72659;-38
2024/04/02 03:16:03;;;;;;;43.60;12.50;;;;;;;14.67;65.53;98132.45;107268;1256;60978;-39
2024/04/02 03:18:30;;;;;;;50.10;14.30;;;;;;;14.66;65.60;98129.81;107309;1257;61081;-39
2024/04/02 03:21:00;;;;;;;42.60;15.00;;;;;;;14.66;65.65;98127.18;107225;1260;74738;-39
2024/04/02 03:23:27;;;;;;;49.40;15.80;;;;;;;14.64;65.66;98120.04;107228;1260;66625;-39
2024/04/02 03:26:00;;;;;;;39.50;15.10;;;;;;;14.62;65.65;98118.45;107220;1256;72687;-39
2024/04/02 03:28:28;;;;;;;38.80;17.40;;;;;;;14.59;65.71;98112.88;107235;1257;61293;-39
2024/04/02 03:30:57;;;;;;;44.50;15.90;;;;;;;14.52;65.76;98109.87;107284;1256;61209;-38
2024/04/02 03:33:26;;;;;;;46.80;15.70;;;;;;;14.47;65.94;98106.15;107097;1257;73343;-38
2024/04/02 03:35:53;;;;;;;46.50;9.00;;;;;;;14.42;65.98;98104.36;107188;1257;66316;-38
2024/04/02 03:38:21;;;;;;;39.50;12.10;;;;;;;14.43;66.00;98094.45;107141;1257;71375;-38
2024/04/02 03:40:48;;;;;;;34.20;11.20;;;;;;;14.47;66.01;98092.21;107141;1257;61309;-38
2024/04/02 03:43:16;;;;;;;37.40;12.90;;;;;;;14.44;66.11;98092.63;107195;1257;61227;-38
2024/04/02 03:45:43;;;;;;;33.40;13.70;;;;;;;14.43;66.25;98094.37;107212;1256;73433;-39
2024/04/02 03:48:11;;;;;;;34.00;14.00;;;;;;;14.41;66.31;98092.00;107198;1257;66440;-38
2024/04/02 03:50:38;;;;;;;41.40;15.40;;;;;;;14.37;66.39;98087.99;107237;1257;71496;-37
2024/04/02 03:53:06;;;;;;;48.20;14.60;;;;;;;14.32;66.51;98085.65;107276;1257;61375;-38
2024/04/02 03:55:36;;;;;;;46.80;16.10;;;;;;;14.27;66.61;98072.80;107254;1256;60952;-38
2024/04/02 03:58:04;;;;;;;39.80;8.40;;;;;;;14.24;66.63;98063.87;107204;1256;74656;-38
2024/04/02 04:00:32;;;;;;;34.40;10.60;;;;;;;14.26;66.59;98059.02;107273;1257;66328;-38
2024/04/02 04:02:59;;;;;;;42.20;12.20;;;;;;;14.27;66.61;98047.88;107261;1256;71398;-38
2024/04/02 04:05:27;;;;;;;34.80;12.50;;;;;;;14.21;66.79;98042.05;107258;1258;61116;-38
2024/04/02 04:07:55;;;;;;;41.70;13.90;;;;;;;14.13;66.82;98037.27;107250;1256;61359;-38
2024/04/02 04:10:22;;;;;;;37.20;14.80;;;;;;;14.06;67.12;98040.44;107250;1257;74623;-38
2024/04/02 04:12:49;;;;;;;33.50;8.30;;;;;;;13.97;67.16;98039.64;107214;1256;66310;-38
2024/04/02 04:15:18;;;;;;;44.50;8.90;;;;;;;13.89;67.37;98041.55;107322;1257;72692;-38
2024/04/02 04:17:45;;;;;;;35.50;10.30;;;;;;;13.84;67.54;98035.26;107177;1257;61329;-38
2024/04/02 04:20:13;;;;;;;41.90;11.50;;;;;;;13.80;67.69;98036.72;107130;1260;61302;-38
2024/04/02 04:22:40;;;;;;;35.90;12.90;;;;;;;13.74;68.04;98032.92;107119;1256;73387;-38
2024/04/02 04:25:08;;;;;;;39.20;14.00;;;;;;;13.70;68.19;98026.84;107150;1257;67571;-38
2024/04/02 04:27:39;;;;;;;37.50;7.60;;;;;;;13.65;68.32;98023.71;107141;1256;72669;-38
2024/04/02 04:30:08;;;;;;;43.50;9.50;;;;;;;13.66;68.42;98021.29;107204;1257;61766;-38
2024/04/02 04:32:38;;;;;;;38.90;10.10;;;;;;;13.70;68.45;98014.83;107331;1256;61119;-38
2024/04/02 04:35:06;;;;;;;37.40;11.50;;;;;;;13.64;68.58;98003.05;107240;1256;74812;-38
2024/04/02 04:37:34;;;;;;;39.30;12.40;;;;;;;13.70;68.64;98007.92;107308;1257;67917;-38
2024/04/02 04:40:02;;;;;;;41.40;12.30;;;;;;;13.72;68.61;98005.79;107245;1257;71380;-38
2024/04/02 04:42:32;;;;;;;45.30;8.60;;;;;;;13.74;68.61;98004.14;107241;1256;61144;-38
2024/04/02 04:44:59;;;;;;;36.80;9.00;;;;;;;13.78;68.64;97996.27;107262;1257;61240;-38
2024/04/02 04:47:27;;;;;;;39.90;10.50;;;;;;;13.87;68.36;97994.58;107213;1260;73395;-39
2024/04/02 04:49:54;;;;;;;29.70;11.00;;;;;;;13.92;68.42;97990.45;107277;1257;68175;-39
2024/04/02 04:52:21;;;;;;;44.10;12.50;;;;;;;13.88;68.46;97980.08;107260;1257;72668;-38
2024/04/02 04:54:49;;;;;;;31.80;12.70;;;;;;;13.94;68.31;97988.95;107295;1256;61106;-38
2024/04/02 04:57:16;;;;;;;34.20;12.40;;;;;;;13.96;68.40;97991.23;107283;1256;60682;-38
2024/04/02 04:59:44;;;;;;;37.00;7.60;;;;;;;13.97;68.38;97988.80;107221;1257;73361;-38
2024/04/02 05:02:11;;;;;;;34.60;8.60;;;;;;;14.05;68.13;97986.10;107169;1257;66575;-39
2024/04/02 05:04:38;;;;;;;33.10;9.30;;;;;;;14.15;67.97;97983.52;107132;1256;72654;-38
2024/04/02 05:07:23;;;;;;;37.00;11.00;;;;;;;14.21;67.88;97987.69;107157;1257;61222;-38
2024/04/02 05:09:51;;;;;;;38.20;10.90;;;;;;;14.27;67.62;97985.56;107152;1261;61131;-38
2024/04/02 05:12:18;;;;;;;36.80;13.30;;;;;;;14.31;67.56;97979.95;107234;1256;74630;-39
2024/04/02 05:14:45;;;;;;;37.50;12.30;;;;;;;14.37;67.43;97976.21;107284;1257;67587;-39
2024/04/02 05:17:13;;;;;;;39.90;12.40;;;;;;;14.40;67.13;97971.10;107229;1257;72700;-38
2024/04/02 05:19:40;;;;;;;48.30;8.80;;;;;;;14.40;67.08;97966.98;107259;1257;60896;-38
2024/04/02 05:22:08;;;;;;;44.10;8.10;;;;;;;14.42;67.05;97967.95;107246;1257;61386;-38
2024/04/02 05:24:36;;;;;;;44.10;9.80;;;;;;;14.49;66.81;97970.62;107248;1257;74642;-39
2024/04/02 05:27:04;;;;;;;33.70;10.40;;;;;;;14.55;66.76;97969.73;107217;1256;67951;-38
2024/04/02 05:29:31;;;;;;;33.50;10.50;;;;;;;14.56;66.80;97963.33;107261;1257;72659;-38
2024/04/02 05:31:59;;;;;;;44.90;13.20;;;;;;;14.59;66.78;97957.48;107569;1254;61237;-38
2024/04/02 05:34:27;;;;;;;35.30;12.90;;;;;;;14.63;66.62;97951.33;107572;1252;60240;-38
2024/04/02 05:36:54;;;;;;;40.40;13.20;;;;;;;14.65;66.63;97948.80;107539;1254;74610;-38
2024/04/02 05:39:22;;;;;;;42.70;14.50;;;;;;;14.67;66.55;97950.23;107540;1256;65311;-38
2024/04/02 05:41:49;;;;;;;35.60;8.20;;;;;;;14.69;66.44;97938.50;107486;1257;71518;-38
2024/04/02 05:44:16;;;;;;;42.20;10.50;;;;;;;14.75;66.15;97928.70;107519;1254;61057;-38
2024/04/02 05:46:44;;;;;;;40.00;11.00;;;;;;;14.82;66.09;97926.08;107567;1253;60067;-38
2024/04/02 05:49:14;;;;;;;39.20;12.50;;;;;;;14.86;65.99;97928.12;107554;1252;74624;-38
2024/04/02 05:51:41;;;;;;;33.90;11.80;;;;;;;14.87;65.89;97927.20;107581;1254;67193;-38
2024/04/02 05:54:08;;;;;;;37.20;12.80;;;;;;;14.92;65.83;97925.48;107543;1253;72757;-38
2024/04/02 05:56:36;;;;;;;36.50;13.90;;;;;;;14.97;65.64;97929.43;107563;1252;61122;-38
2024/04/02 05:59:07;;;;;;;40.90;14.00;;;;;;;14.98;64.88;97933.84;107551;1253;61038;-38
2024/04/02 06:01:34;;;;;;;38.60;13.40;;;;;;;14.91;64.89;97919.73;107590;1254;74658;-38
2024/04/02 06:04:02;;;;;;;38.00;9.00;;;;;;;14.94;64.91;97925.20;107563;1253;67579;-38
2024/04/02 06:06:29;;;;;;;39.00;9.80;;;;;;;15.01;64.78;97926.52;107549;1254;72688;-38
2024/04/02 06:08:57;;;;;;;34.30;9.20;;;;;;;15.11;64.55;97916.78;107564;1254;61191;-38
2024/04/02 06:11:24;;;;;;;39.40;10.60;;;;;;;15.18;64.41;97913.49;107560;1254;61202;-38
2024/04/02 06:13:52;;;;;;;43.40;10.60;;;;;;;15.26;64.20;97910.92;107572;1253;74724;-38
2024/04/02 06:16:19;;;;;;;38.20;11.50;;;;;;;15.32;63.84;97907.42;107567;1254;67746;-38
2024/04/02 06:18:47;;;;;;;37.40;13.10;;;;;;;15.35;63.58;97902.89;107534;1254;71409;-38
2024/04/02 06:21:14;;;;;;;36.20;12.60;;;;;;;15.38;63.56;97901.18;107588;1253;60976;-38
2024/04/02 06:23:42;;;;;;;41.40;14.70;;;;;;;15.43;63.64;97891.77;107541;1253;60382;-38
2024/04/02 06:26:10;;;;;;;33.70;13.90;;;;;;;15.52;63.69;97887.46;107401;1259;74708;-38
2024/04/02 06:28:38;;;;;;;37.20;13.00;;;;;;;15.63;63.57;97878.83;107450;1253;68063;-38
2024/04/02 06:31:05;;;;;;;41.50;13.00;;;;;;;15.75;62.68;97877.98;107321;1253;73030;-38
2024/04/02 06:33:32;;;;;;;38.00;15.40;;;;;;;15.85;62.11;97869.77;107453;1253;61133;-38
2024/04/02 06:36:00;;;;;;;38.00;9.20;;;;;;;15.92;62.10;97862.92;107444;1258;61166;-38
2024/04/02 06:38:27;;;;;;;35.80;8.60;;;;;;;16.03;61.84;97859.89;107448;1253;75007;-38
2024/04/02 06:40:55;;;;;;;39.30;9.60;;;;;;;16.20;61.18;97859.13;107417;1253;66896;-38
2024/04/02 06:43:23;;;;;;;41.70;9.70;;;;;;;16.32;60.58;97855.44;107435;1254;72015;-38
2024/04/02 06:45:53;;;;;;;38.30;10.20;;;;;;;16.38;60.22;97847.92;107394;1253;61335;-38
2024/04/02 06:48:22;;;;;;;41.50;10.40;;;;;;;16.46;60.15;97843.86;107393;1253;61021;-38
2024/04/02 06:50:58;;;;;;;31.50;9.60;;;;;;;16.57;59.71;97840.59;107376;1253;74643;-39
2024/04/02 06:53:26;;;;;;;38.60;10.00;;;;;;;16.67;59.03;97836.92;107426;1253;68126;-39
2024/04/02 06:55:54;;;;;;;41.40;11.20;;;;;;;16.75;58.53;97827.06;107474;1253;74776;-38
2024/04/02 06:58:21;;;;;;;45.50;11.30;;;;;;;16.84;58.38;97825.31;107439;1253;61117;-38
2024/04/02 07:00:49;;;;;;;43.80;11.10;;;;;;;16.94;58.36;97822.36;107408;1253;61265;-39
2024/04/02 07:03:18;;;;;;;39.80;11.00;;;;;;;17.05;58.01;97820.21;107393;1253;75039;-38
2024/04/02 07:05:48;;;;;;;48.20;11.30;;;;;;;17.17;57.40;97823.49;107451;1253;67375;-38
2024/04/02 07:08:16;;;;;;;42.40;10.10;;;;;;;17.26;57.15;97826.58;107470;1253;73925;-38
2024/04/02 07:10:58;;;;;;;38.70;11.30;;;;;;;17.36;56.95;97829.45;107442;1253;60913;-38
2024/04/02 07:13:26;;;;;;;34.40;10.40;;;;;;;17.48;56.53;97825.52;107481;1253;61119;-38
2024/04/02 07:15:53;;;;;;;39.50;11.20;;;;;;;17.59;56.10;97818.43;107483;1253;75007;-38
2024/04/02 07:18:21;;;;;;;36.20;9.80;;;;;;;17.71;56.03;97814.83;107439;1253;68378;-38
2024/04/02 07:21:02;;;;;;;38.20;10.30;;;;;;;17.87;55.69;97810.84;107435;1253;72815;-38
2024/04/02 07:23:30;;;;;;;45.80;10.50;;;;;;;18.02;55.28;97806.08;107458;1254;61184;-38
2024/04/02 07:25:58;;;;;;;51.50;10.80;;;;;;;18.15;54.73;97801.98;107485;1253;61151;-38
2024/04/02 07:28:26;;;;;;;46.10;9.90;;;;;;;18.28;54.52;97789.14;107469;1253;75087;-38
2024/04/02 07:30:53;;;;;;;42.20;10.50;;;;;;;18.40;53.96;97783.57;107460;1253;68199;-38
2024/04/02 07:33:21;;;;;;;34.20;9.50;;;;;;;18.54;53.79;97774.96;107411;1253;73055;-38
2024/04/02 07:35:56;;;;;;;39.90;11.20;;;;;;;18.65;53.25;97772.84;107326;1254;61222;-38
2024/04/02 07:38:23;;;;;;;37.20;10.40;;;;;;;18.74;52.91;97763.77;107368;1253;61197;-38
2024/04/02 07:40:51;;;;;;;39.60;10.40;;;;;;;18.84;52.74;97755.94;107367;1253;76886;-39
2024/04/02 07:43:18;;;;;;;37.40;10.40;;;;;;;18.97;52.07;97751.04;107464;1258;67905;-38
2024/04/02 07:45:52;;;;;;;43.10;12.20;;;;;;;19.09;51.70;97744.71;107502;1253;71466;-38
2024/04/02 07:48:20;;;;;;;41.60;10.90;;;;;;;19.20;51.12;97737.73;107512;1256;61198;-38
2024/04/02 07:50:49;;;;;;;42.90;10.80;;;;;;;19.30;51.17;97730.27;107455;1253;61115;-39
2024/04/02 07:53:16;;;;;;;41.60;10.50;;;;;;;19.42;50.92;97732.48;107422;1253;74791;-37
2024/04/02 07:55:44;;;;;;;36.30;11.60;;;;;;;19.46;50.68;97727.16;107418;1254;67422;-37
2024/04/02 07:58:12;;;;;;;41.70;10.60;;;;;;;19.59;50.49;97722.36;107366;1254;71528;-37
2024/04/02 08:00:41;;;;;;;43.10;11.80;;;;;;;19.70;49.82;97716.46;107377;1253;61264;-37
2024/04/02 08:03:09;;;;;;;47.40;11.20;;;;;;;19.79;49.53;97710.98;107433;1253;61040;-38
2024/04/02 08:05:36;;;;;;;37.30;10.60;;;;;;;19.85;49.26;97706.11;107408;1256;74763;-37
2024/04/02 08:08:04;;;;;;;41.10;9.90;;;;;;;19.96;48.81;97707.92;107425;1253;66945;-38
2024/04/02 08:10:32;;;;;;;34.20;10.30;;;;;;;20.11;48.15;97699.84;107431;1253;71487;-37
2024/04/02 08:12:59;;;;;;;34.90;10.40;;;;;;;20.25;47.15;97698.48;107409;1253;60452;-37
2024/04/02 08:15:27;;;;;;;44.90;11.00;;;;;;;20.37;47.57;97688.95;107428;1253;61476;-37
2024/04/02 08:17:54;;;;;;;35.40;9.70;;;;;;;20.56;47.72;97686.05;107495;1253;75022;-38
2024/04/02 08:20:22;;;;;;;46.90;11.90;;;;;;;20.73;46.99;97678.04;107480;1253;68861;-38
2024/04/02 08:22:49;;;;;;;47.70;10.60;;;;;;;20.87;46.79;97669.58;107457;1254;71575;-37
2024/04/02 08:25:17;;;;;;;42.00;10.00;;;;;;;21.00;46.39;97669.45;107429;1254;61203;-37
2024/04/02 08:27:45;;;;;;;42.50;10.40;;;;;;;21.17;45.99;97666.31;107334;1253;61103;-37
2024/04/02 08:30:12;;;;;;;52.50;11.00;;;;;;;21.34;45.35;97664.68;107357;1253;75051;-37
2024/04/02 08:32:39;;;;;;;37.90;11.00;;;;;;;21.47;44.85;97660.86;107397;1253;68354;-38
2024/04/02 08:35:09;;;;;;;46.10;11.20;;;;;;;21.61;45.21;97654.55;107458;1254;73628;-37
2024/04/02 08:37:37;;;;;;;;;;;;;;;21.76;44.88;97647.44;107419;1253;61195;-38
2024/04/02 08:40:05;;;;;;;40.80;10.30;;;;;;;21.84;44.56;97646.06;107484;1253;61211;-38
2024/04/02 08:42:32;;;;;;;46.70;10.70;;;;;;;21.91;44.38;97637.33;107464;1253;76908;-37
2024/04/02 08:45:09;;;;;;;33.50;11.20;;;;;;;22.05;44.05;97638.07;107372;1253;66712;-37
2024/04/02 08:47:37;;;;;;;40.00;10.90;;;;;;;22.20;43.48;97635.48;107248;1253;71472;-38
2024/04/02 08:50:05;;;;;;;41.60;10.80;;;;;;;22.32;43.43;97623.08;107393;1253;61113;-38
2024/04/02 08:52:34;;;;;;;37.20;9.80;;;;;;;22.48;43.07;97618.23;107504;1253;61090;-38
2024/04/02 08:55:02;;;;;;;54.40;10.80;;;;;;;22.70;42.56;97620.74;107410;1253;74761;-38
2024/04/02 08:57:30;;;;;;;44.00;11.50;;;;;;;22.91;41.39;97609.37;107501;1253;66577;-38
2024/04/02 08:59:57;;;;;;;41.40;10.00;;;;;;;23.06;40.68;97613.92;107297;1254;72580;-39
2024/04/02 09:02:25;;;;;;;40.90;10.50;;;;;;;23.20;40.95;97606.98;107286;1260;61550;-39
2024/04/02 09:04:52;;;;;;;45.10;10.50;;;;;;;23.30;40.39;97605.88;107462;1253;61147;-39
2024/04/02 09:07:19;;;;;;;37.70;9.80;;;;;;;23.29;40.65;97598.54;107413;1253;75280;-39
2024/04/02 09:09:47;;;;;;;45.40;10.10;;;;;;;23.29;40.35;97600.14;107375;1253;67759;-39
2024/04/02 09:12:16;;;;;;;48.20;10.70;;;;;;;23.31;40.44;97591.20;107292;1254;71546;-39
2024/04/02 09:14:46;;;;;;;43.90;10.10;;;;;;;23.35;40.40;97596.29;107307;1253;61134;-39
2024/04/02 09:17:14;;;;;;;51.40;10.60;;;;;;;23.42;40.86;97587.61;107465;1253;61302;-39
2024/04/02 09:19:44;;;;;;;47.30;10.40;;;;;;;23.52;40.42;97583.60;107326;1253;73954;-38
2024/04/02 09:22:11;;;;;;;47.00;11.50;;;;;;;23.61;40.17;97584.39;107338;1255;68167;-38
2024/04/02 09:24:39;;;;;;;50.30;10.70;;;;;;;23.74;39.26;97579.32;107407;1253;73081;-38
2024/04/02 09:27:06;;;;;;;47.50;11.60;;;;;;;23.94;39.08;97579.16;107495;1257;61226;-39
2024/04/02 09:29:34;;;;;;;41.20;10.60;;;;;;;24.15;38.14;97583.52;107359;1253;61209;-38
2024/04/02 09:32:02;;;;;;;50.30;11.00;;;;;;;24.26;37.90;97572.46;107235;1253;76244;-39
2024/04/02 09:34:31;;;;;;;46.30;11.20;;;;;;;24.35;37.82;97563.40;107368;1253;70347;-39
2024/04/02 09:37:12;;;;;;;43.50;11.80;;;;;;;24.41;37.56;97556.52;107301;1253;71984;-39
2024/04/02 09:39:40;;;;;;;47.60;12.50;;;;;;;24.37;37.11;97543.46;107340;1253;61372;-39
2024/04/02 09:42:11;;;;;;;47.90;12.80;;;;;;;24.24;36.93;97550.34;107403;1253;61152;-39
2024/04/02 09:44:39;;;;;;;51.10;11.50;;;;;;;24.08;37.13;97547.15;107261;1253;74042;-38
2024/04/02 09:47:07;;;;;;;44.00;10.70;;;;;;;23.94;37.60;97539.96;107298;1253;67797;-39
2024/04/02 09:49:35;;;;;;;46.60;10.80;;;;;;;23.81;37.74;97536.91;107210;1253;73108;-38
2024/04/02 09:52:03;;;;;;;50.30;12.20;;;;;;;23.69;37.95;97537.77;107141;1253;61582;-39
2024/04/02 09:54:30;;;;;;;47.60;10.90;;;;;;;23.64;38.52;97531.64;107335;1253;61254;-38
2024/04/02 09:56:59;;;;;;;55.00;10.80;;;;;;;23.65;38.48;97532.56;107282;1253;73526;-39
2024/04/02 09:59:26;;;;;;;49.30;10.90;;;;;;;23.70;38.65;97525.27;107398;1253;67027;-39
2024/04/02 10:01:54;;;;;;;62.70;11.70;;;;;;;23.77;38.33;97519.58;107202;1253;72800;-38
2024/04/02 10:04:22;;;;;;;59.30;11.40;;;;;;;23.79;38.09;97517.83;107136;1253;61526;-38
2024/04/02 10:06:53;;;;;;;40.10;10.50;;;;;;;23.83;38.10;97515.48;107347;1253;61065;-39
2024/04/02 10:09:41;;;;;;;46.70;10.80;;;;;;;23.94;37.48;97523.01;107304;1253;73554;-39
2024/04/02 10:12:09;;;;;;;41.50;10.70;;;;;;;24.06;37.50;97520.71;107402;1253;68179;-39
2024/04/02 10:14:36;;;;;;;43.50;10.10;;;;;;;24.21;37.27;97524.05;107270;1253;72879;-39
2024/04/02 10:17:12;;;;;;;49.10;10.40;;;;;;;24.36;37.04;97521.45;107366;1254;61307;-40
2024/04/02 10:19:44;;;;;;;41.90;10.10;;;;;;;24.51;36.28;97528.58;107560;1253;61004;-40
2024/04/02 10:22:11;;;;;;;52.70;10.80;;;;;;;24.65;36.66;97525.27;107417;1253;75045;-40
2024/04/02 10:24:39;;;;;;;46.10;10.60;;;;;;;24.88;36.42;97515.78;107442;1253;66793;-40
2024/04/02 10:27:10;;;;;;;48.60;10.70;;;;;;;25.10;36.19;97515.42;107440;1257;70933;-40
2024/04/02 10:29:38;;;;;;;51.90;11.10;;;;;;;25.21;35.08;97509.70;107323;1253;62736;-40
2024/04/02 10:32:06;;;;;;;44.50;10.40;;;;;;;25.23;35.10;97501.13;107402;1253;61255;-40
2024/04/02 10:34:33;;;;;;;36.80;9.90;;;;;;;25.27;35.27;97487.36;107343;1253;75025;-40
2024/04/02 10:37:02;;;;;;;48.30;12.00;;;;;;;25.41;35.31;97484.09;107079;1253;66824;-40
2024/04/02 10:39:33;;;;;;;46.00;11.10;;;;;;;25.56;35.02;97478.75;107519;1253;74901;-40
2024/04/02 10:42:03;;;;;;;55.90;11.30;;;;;;;25.71;34.95;97471.17;107223;1256;191579;-40
2024/04/02 10:47:01;;;;;;;46.70;11.00;;;;;;;26.06;34.39;97466.55;104086;1295;599529;-38
2024/04/02 10:49:29;;;;;;;42.90;10.40;;;;;;;26.19;34.19;97458.70;106465;1269;60169;-39
2024/04/02 10:52:04;;;;;;;45.60;11.10;;;;;;;26.34;34.23;97448.80;106541;1269;60376;-38
2024/04/02 10:54:33;;;;;;;39.70;11.10;;;;;;;26.56;33.45;97446.53;106664;1272;73470;-39
2024/04/02 10:57:00;;;;;;;43.00;10.70;;;;;;;26.67;33.26;97441.06;106613;1267;67445;-39
2024/04/02 10:59:28;;;;;;;51.10;10.50;;;;;;;26.80;33.12;97442.26;106488;1271;190605;-39
2024/04/02 11:01:59;;;;;;;51.90;11.00;;;;;;;26.89;32.86;97439.19;106652;1266;60177;-39
2024/04/02 11:04:26;;;;;;;42.10;10.50;;;;;;;26.95;33.32;97434.04;106753;1266;60172;-39
2024/04/02 11:06:54;;;;;;;49.20;10.80;;;;;;;27.11;33.10;97426.95;106687;1266;73374;-39
2024/04/02 11:09:22;;;;;;;45.10;10.70;;;;;;;27.34;32.54;97428.48;106740;1270;66523;-39
2024/04/02 11:11:52;;;;;;;44.80;10.70;;;;;;;27.55;32.49;97420.10;106798;1264;71535;-39
2024/04/02 11:14:19;;;;;;;48.70;10.60;;;;;;;27.75;32.13;97411.45;106869;1264;60296;-39
2024/04/02 11:16:49;;;;;;;41.70;10.50;;;;;;;27.88;30.93;97411.81;106744;1265;60850;-39